Главная страница
METAR-TAF:

METAR-TAF

Аэропорты :

Осло, Норвегия

Гардермуэн

широта: 60-12N, долгота: 011-05E, высота над уровнем моря: 208 м

Текущие метеонаблюдения

Эта сводка был подготовлена 25 минут назад, в 22:20 UTC
Штиль
Температура -12°C
Влажность 85%
Давление 1026 hPa
Видимость: 0800 м
клочья тумана

METAR: ENGM 222220Z 00000KT 4500 0800E R19R/1800U R01R/P2000N BCFG VV001 M12/M14 Q1026

Время: 23:45 (22:45 UTC)

Прогноз

Прогноз действительный с 22-го 18 UTC до 23-го 18 UTC
Ветер 5 Узел от северно-северо-западный
Видимость 10 км и более
небольшая облачность на высоте 200 фута
Вероятность 40%
С 23-го 02 UTC до 23-го 09 UTC
Видимость: 2000 м
Рассеянная облачность на высоте 200 фута
клочья тумана

TAF: ENGM 2218/2318 34005KT 9999 FEW002 PROB40 2302/2309 2000 BCFG BKN002

Метеонаблюдения и прогнозы для более 4000 аэропортов (сводки METAR и TAF).

Имеющиеся станции представлены на карте желтыми и красными точками.

Чтобы увидеть название станции, наведите на нее мышь.

Затем щелкните, чтобы увидеть метеонаблюдения и метеопрогнозы.

Управление картой: чтобы увеличить масштаб, щелкните зеленые кнопки с черным крестиком; чтобы уменьшить масштаб, щелкните зеленую кнопку с тире; для просмотра соседних карт щелкайте зеленые стрелки.


METAR-TAF: